createdAt,value
2023-07-22T00:01:45.987Z,17.05
2023-07-22T00:04:13.052Z,17.03
2023-07-22T00:06:39.489Z,17.03
2023-07-22T00:09:06.409Z,16.99
2023-07-22T00:11:33.443Z,16.97
2023-07-22T00:14:00.124Z,16.93
2023-07-22T00:16:26.791Z,16.89
2023-07-22T00:18:54.696Z,16.87
2023-07-22T00:21:21.118Z,16.87
2023-07-22T00:23:47.648Z,16.88
2023-07-22T00:26:14.214Z,16.86
2023-07-22T00:28:40.664Z,16.83
2023-07-22T00:31:07.511Z,16.79
2023-07-22T00:33:34.004Z,16.75
2023-07-22T00:36:00.560Z,16.75
2023-07-22T00:38:28.146Z,16.73
2023-07-22T00:40:54.797Z,16.72
2023-07-22T00:43:21.289Z,16.70
2023-07-22T00:45:47.818Z,16.66
2023-07-22T00:48:15.942Z,16.65
2023-07-22T00:50:42.509Z,16.53
2023-07-22T00:53:09.127Z,16.42
2023-07-22T00:55:36.672Z,16.39
2023-07-22T00:58:03.161Z,16.39
2023-07-22T01:00:29.642Z,16.38
2023-07-22T01:02:56.253Z,16.36
2023-07-22T01:05:22.837Z,16.32
2023-07-22T01:07:49.348Z,16.33
2023-07-22T01:10:16.046Z,16.31
2023-07-22T01:12:44.735Z,16.30
2023-07-22T01:15:11.621Z,16.32
2023-07-22T01:17:38.800Z,16.25
2023-07-22T01:20:07.145Z,16.21
2023-07-22T01:22:34.718Z,16.12
2023-07-22T01:25:02.150Z,16.10
2023-07-22T01:27:28.753Z,16.12
2023-07-22T01:29:55.316Z,16.16
2023-07-22T01:32:21.826Z,16.11
2023-07-22T01:34:48.345Z,15.95
2023-07-22T01:37:14.878Z,15.80
2023-07-22T01:39:41.293Z,15.73
2023-07-22T01:42:07.747Z,15.70
2023-07-22T01:44:34.186Z,15.73
2023-07-22T01:47:03.997Z,15.75
2023-07-22T01:49:30.548Z,15.79
2023-07-22T01:51:57.217Z,15.80
2023-07-22T01:54:23.677Z,15.80
2023-07-22T01:56:50.184Z,15.78
2023-07-22T01:59:16.645Z,15.76
2023-07-22T02:01:43.192Z,15.67
2023-07-22T02:04:09.904Z,15.50
2023-07-22T02:06:36.463Z,15.36
2023-07-22T02:09:09.300Z,15.30
2023-07-22T02:11:36.815Z,15.29
2023-07-22T02:14:04.720Z,15.31
2023-07-22T02:16:31.156Z,15.42
2023-07-22T02:18:58.102Z,15.51
2023-07-22T02:21:24.531Z,15.50
2023-07-22T02:23:51.050Z,15.49
2023-07-22T02:26:17.506Z,15.49
2023-07-22T02:28:44.083Z,15.49
2023-07-22T02:31:11.857Z,15.51
2023-07-22T02:33:39.122Z,15.47
2023-07-22T02:36:05.740Z,15.47
2023-07-22T02:38:32.224Z,15.49
2023-07-22T02:41:08.617Z,15.47
2023-07-22T02:43:36.180Z,15.44
2023-07-22T02:46:08.943Z,15.40
2023-07-22T02:48:35.605Z,15.39
2023-07-22T02:51:08.129Z,15.28
2023-07-22T02:53:37.555Z,15.19
2023-07-22T02:56:05.196Z,15.20
2023-07-22T02:58:31.614Z,15.26
2023-07-22T03:01:00.776Z,15.28
2023-07-22T03:03:27.783Z,15.26
2023-07-22T03:05:54.460Z,15.15
2023-07-22T03:08:20.869Z,15.00
2023-07-22T03:10:49.594Z,14.89
2023-07-22T03:13:16.686Z,14.94
2023-07-22T03:15:43.766Z,14.95
2023-07-22T03:18:11.117Z,14.98
2023-07-22T03:20:38.663Z,14.94
2023-07-22T03:23:06.173Z,14.92
2023-07-22T03:25:33.994Z,14.96
2023-07-22T03:28:05.530Z,15.03
2023-07-22T03:30:32.360Z,15.12
2023-07-22T03:32:58.891Z,15.14
2023-07-22T03:35:25.609Z,15.13
2023-07-22T03:37:52.007Z,15.09
2023-07-22T03:40:21.572Z,15.05
2023-07-22T03:42:52.527Z,15.03
2023-07-22T03:45:20.127Z,15.05
2023-07-22T03:47:48.247Z,15.08
2023-07-22T03:50:14.802Z,15.09
2023-07-22T03:52:41.276Z,15.04
2023-07-22T03:55:08.285Z,14.96
2023-07-22T03:57:36.660Z,14.94
2023-07-22T04:00:05.064Z,14.99
2023-07-22T04:02:31.618Z,15.04
2023-07-22T04:04:58.250Z,15.04
2023-07-22T04:07:25.136Z,15.07
2023-07-22T04:09:51.656Z,15.09
2023-07-22T04:12:18.341Z,15.12
2023-07-22T04:14:44.971Z,15.14
2023-07-22T04:17:11.590Z,15.17
2023-07-22T04:19:38.103Z,15.20
2023-07-22T04:22:05.804Z,15.26
2023-07-22T04:24:32.840Z,15.30
2023-07-22T04:26:59.850Z,15.29
2023-07-22T04:29:26.303Z,15.31
2023-07-22T04:31:52.799Z,15.33
2023-07-22T04:34:19.297Z,15.34
2023-07-22T04:36:45.741Z,15.37
2023-07-22T04:39:12.168Z,15.45
2023-07-22T04:41:38.717Z,15.48
2023-07-22T04:44:05.390Z,15.54
2023-07-22T04:46:31.885Z,15.60
2023-07-22T04:48:59.251Z,15.65
2023-07-22T04:51:25.784Z,15.70
2023-07-22T04:53:52.250Z,15.76
2023-07-22T04:56:18.743Z,15.84
2023-07-22T04:58:45.167Z,15.95
2023-07-22T05:01:11.826Z,16.04
2023-07-22T05:03:38.325Z,16.17
2023-07-22T05:06:04.858Z,16.28
2023-07-22T05:08:31.432Z,16.41
2023-07-22T05:10:57.962Z,16.53
2023-07-22T05:13:24.486Z,16.66
2023-07-22T05:15:50.954Z,16.79
2023-07-22T05:18:17.811Z,16.90
2023-07-22T05:20:44.398Z,17.00
2023-07-22T05:23:12.825Z,17.07
2023-07-22T05:25:39.237Z,17.18
2023-07-22T05:28:05.681Z,17.23
2023-07-22T05:30:35.610Z,17.31
2023-07-22T05:33:03.196Z,17.36
2023-07-22T05:35:29.888Z,17.36
2023-07-22T05:37:56.410Z,17.37
2023-07-22T05:40:22.946Z,17.40
2023-07-22T05:42:49.430Z,17.45
2023-07-22T05:45:17.371Z,17.53
2023-07-22T05:47:44.086Z,17.66
2023-07-22T05:50:10.695Z,17.79
2023-07-22T05:52:37.723Z,17.84
2023-07-22T05:55:04.443Z,17.88
2023-07-22T05:57:31.803Z,17.91
2023-07-22T06:00:07.425Z,17.82
2023-07-22T06:02:35.315Z,17.67
2023-07-22T06:05:02.584Z,17.62
2023-07-22T06:07:29.056Z,17.69
2023-07-22T06:09:55.496Z,17.95
2023-07-22T06:12:22.080Z,18.02
2023-07-22T06:14:48.608Z,18.20
2023-07-22T06:17:15.030Z,18.40
2023-07-22T06:19:41.453Z,18.51
2023-07-22T06:22:07.924Z,18.52
2023-07-22T06:24:34.556Z,18.63
2023-07-22T06:27:01.136Z,18.76
2023-07-22T06:29:27.772Z,18.78
2023-07-22T06:31:54.348Z,18.75
2023-07-22T06:34:20.926Z,18.81
2023-07-22T06:36:48.413Z,18.91
2023-07-22T06:39:14.858Z,18.94
2023-07-22T06:41:41.265Z,19.04
2023-07-22T06:44:07.848Z,19.23
2023-07-22T06:46:34.326Z,19.32
2023-07-22T06:49:00.784Z,19.58
2023-07-22T06:51:27.232Z,19.76
2023-07-22T06:53:53.698Z,19.89
2023-07-22T06:56:20.164Z,19.90
2023-07-22T06:58:46.633Z,19.82
2023-07-22T07:01:13.102Z,19.82
2023-07-22T07:03:39.547Z,19.93
2023-07-22T07:06:06.048Z,20.13
2023-07-22T07:08:32.516Z,20.28
2023-07-22T07:11:02.249Z,20.49
2023-07-22T07:13:28.825Z,20.67
2023-07-22T07:15:55.547Z,20.70
2023-07-22T07:18:22.010Z,20.66
2023-07-22T07:20:48.553Z,20.81
2023-07-22T07:23:17.418Z,21.01
2023-07-22T07:25:44.166Z,21.22
2023-07-22T07:28:10.752Z,21.32
2023-07-22T07:30:37.222Z,21.44
2023-07-22T07:33:04.940Z,21.43
2023-07-22T07:35:31.457Z,21.43
2023-07-22T07:37:57.907Z,21.44
2023-07-22T07:40:24.351Z,21.54
2023-07-22T07:42:50.893Z,21.62
2023-07-22T07:45:17.590Z,21.80
2023-07-22T07:47:44.128Z,21.97
2023-07-22T07:50:10.954Z,22.05
2023-07-22T07:52:39.689Z,22.10
2023-07-22T07:55:06.803Z,22.19
2023-07-22T07:57:33.289Z,22.26
2023-07-22T07:59:59.820Z,22.21
2023-07-22T08:02:26.243Z,22.22
2023-07-22T08:04:52.678Z,22.36
2023-07-22T08:07:19.265Z,22.52
2023-07-22T08:09:49.988Z,22.54
2023-07-22T08:12:16.984Z,22.63
2023-07-22T08:14:43.425Z,22.67
2023-07-22T08:17:09.924Z,22.78
2023-07-22T08:19:36.476Z,22.93
2023-07-22T08:22:03.052Z,22.83
2023-07-22T08:24:29.510Z,22.78
2023-07-22T08:26:55.975Z,22.79
2023-07-22T08:29:22.463Z,22.74
2023-07-22T08:31:49.060Z,22.82
2023-07-22T08:34:15.639Z,23.02
2023-07-22T08:36:42.583Z,23.27
2023-07-22T08:39:09.097Z,23.36
2023-07-22T08:41:36.396Z,23.58
2023-07-22T08:44:05.351Z,23.78
2023-07-22T08:46:34.677Z,24.00
2023-07-22T08:49:01.899Z,24.39
2023-07-22T08:51:29.607Z,24.31
2023-07-22T08:54:11.095Z,23.85
2023-07-22T08:56:40.582Z,23.28
2023-07-22T08:59:09.658Z,22.94
2023-07-22T09:01:37.332Z,22.67
2023-07-22T09:04:04.535Z,22.44
2023-07-22T09:06:31.298Z,22.29
2023-07-22T09:08:59.235Z,22.13
2023-07-22T09:11:26.849Z,22.00
2023-07-22T09:13:55.111Z,21.96
2023-07-22T09:16:22.878Z,22.09
2023-07-22T09:18:49.390Z,22.30
2023-07-22T09:21:15.906Z,22.52
2023-07-22T09:23:42.319Z,22.59
2023-07-22T09:26:19.182Z,22.76
2023-07-22T09:28:57.156Z,23.12
2023-07-22T09:31:26.506Z,22.80
2023-07-22T09:33:56.650Z,22.64
2023-07-22T09:36:23.295Z,22.66
2023-07-22T09:39:04.193Z,22.76
2023-07-22T09:41:31.932Z,22.86
2023-07-22T09:44:02.371Z,22.93
2023-07-22T09:46:35.053Z,22.98
2023-07-22T09:49:09.149Z,23.38
2023-07-22T09:51:45.650Z,23.85
2023-07-22T09:54:20.465Z,24.29
2023-07-22T09:56:49.999Z,24.28
2023-07-22T09:59:19.200Z,24.62
2023-07-22T10:01:48.279Z,24.97
2023-07-22T10:04:17.674Z,25.18
2023-07-22T10:06:44.689Z,24.90
2023-07-22T10:09:13.456Z,24.88
2023-07-22T10:11:40.731Z,24.96
2023-07-22T10:14:07.923Z,24.68
2023-07-22T10:16:35.475Z,24.28
2023-07-22T10:19:03.029Z,24.07
2023-07-22T10:21:31.534Z,24.31
2023-07-22T10:23:59.545Z,24.70
2023-07-22T10:26:40.454Z,24.47
2023-07-22T10:29:11.801Z,24.13
2023-07-22T10:31:39.674Z,24.05
2023-07-22T10:34:06.384Z,24.00
2023-07-22T10:36:32.961Z,23.92
2023-07-22T10:39:03.909Z,23.80
2023-07-22T10:41:31.160Z,23.79
2023-07-22T10:44:00.195Z,24.00
2023-07-22T10:46:40.993Z,24.49
2023-07-22T10:49:16.898Z,24.73
2023-07-22T10:51:53.128Z,24.68
2023-07-22T10:54:37.647Z,24.60
2023-07-22T10:57:23.136Z,24.58
2023-07-22T10:59:53.633Z,25.03
2023-07-22T11:02:28.386Z,25.32
2023-07-22T11:04:59.592Z,25.47
2023-07-22T11:08:11.165Z,25.78
2023-07-22T11:10:39.223Z,25.09
2023-07-22T11:13:06.323Z,24.60
2023-07-22T11:15:32.809Z,24.32
2023-07-22T11:17:59.330Z,24.17
2023-07-22T11:20:25.857Z,24.04
2023-07-22T11:22:52.490Z,23.89
2023-07-22T11:25:19.858Z,23.86
2023-07-22T11:27:46.625Z,23.82
2023-07-22T11:30:13.363Z,23.77
2023-07-22T11:32:43.726Z,23.77
2023-07-22T11:35:10.186Z,23.77
2023-07-22T11:37:36.594Z,23.82
2023-07-22T11:40:03.140Z,23.97
2023-07-22T11:42:30.681Z,24.18
2023-07-22T11:44:57.385Z,24.40
2023-07-22T11:47:30.251Z,24.74
2023-07-22T11:49:56.787Z,25.23
2023-07-22T11:52:23.345Z,25.61
2023-07-22T11:54:49.831Z,25.80
2023-07-22T11:57:21.284Z,25.83
2023-07-22T11:59:56.678Z,25.96
2023-07-22T12:02:30.102Z,26.21
2023-07-22T12:05:03.676Z,26.41
2023-07-22T12:07:37.625Z,26.42
2023-07-22T12:10:06.998Z,26.53
2023-07-22T12:12:50.029Z,26.66
2023-07-22T12:15:19.196Z,26.76
2023-07-22T12:17:54.845Z,26.93
2023-07-22T12:20:26.788Z,26.54
2023-07-22T12:22:54.004Z,26.53
2023-07-22T12:25:20.510Z,26.64
2023-07-22T12:27:47.052Z,26.55
2023-07-22T12:30:13.641Z,26.65
2023-07-22T12:32:40.291Z,27.10
2023-07-22T12:35:07.540Z,27.43
2023-07-22T12:37:35.153Z,27.31
2023-07-22T12:40:01.734Z,26.95
2023-07-22T12:42:28.187Z,26.64
2023-07-22T12:44:54.577Z,26.44
2023-07-22T12:47:21.148Z,26.26
2023-07-22T12:49:47.672Z,26.62
2023-07-22T12:52:14.507Z,26.28
2023-07-22T12:54:42.395Z,26.09
2023-07-22T12:57:09.053Z,25.78
2023-07-22T12:59:35.490Z,25.54
2023-07-22T13:02:02.002Z,25.36
2023-07-22T13:04:28.414Z,25.41
2023-07-22T13:06:54.938Z,26.10
2023-07-22T13:09:21.505Z,26.77
2023-07-22T13:11:48.025Z,27.31
2023-07-22T13:14:15.298Z,27.50
2023-07-22T13:16:41.960Z,27.68
2023-07-22T13:19:08.422Z,27.78
2023-07-22T13:21:34.905Z,27.56
2023-07-22T13:24:01.416Z,26.91
2023-07-22T13:26:27.894Z,26.47
2023-07-22T13:28:54.377Z,26.53
2023-07-22T13:31:21.276Z,26.51
2023-07-22T13:33:48.043Z,26.54
2023-07-22T13:36:14.592Z,26.97
2023-07-22T13:38:41.110Z,27.31
2023-07-22T13:41:07.508Z,27.31
2023-07-22T13:43:33.978Z,27.41
2023-07-22T13:46:00.557Z,27.13
2023-07-22T13:48:26.975Z,26.73
2023-07-22T13:50:53.494Z,26.55
2023-07-22T13:53:19.963Z,27.02
2023-07-22T13:55:50.290Z,27.08
2023-07-22T13:58:18.491Z,26.87
2023-07-22T14:00:45.099Z,26.66
2023-07-22T14:03:11.596Z,26.47
2023-07-22T14:05:38.077Z,26.49
2023-07-22T14:08:04.794Z,26.42
2023-07-22T14:10:31.340Z,26.92
2023-07-22T14:12:57.784Z,27.23
2023-07-22T14:15:24.326Z,26.84
2023-07-22T14:17:50.748Z,26.43
2023-07-22T14:20:17.320Z,26.23
2023-07-22T14:22:43.889Z,26.22
2023-07-22T14:25:10.524Z,26.28
2023-07-22T14:27:39.626Z,26.23
2023-07-22T14:30:07.137Z,26.18
2023-07-22T14:32:33.873Z,26.35
2023-07-22T14:35:00.570Z,26.39
2023-07-22T14:37:27.076Z,26.54
2023-07-22T14:39:53.714Z,26.97
2023-07-22T14:42:20.175Z,27.17
2023-07-22T14:44:46.612Z,27.31
2023-07-22T14:47:13.107Z,27.56
2023-07-22T14:49:39.656Z,27.75
2023-07-22T14:52:06.597Z,27.71
2023-07-22T14:54:34.552Z,27.39
2023-07-22T14:57:01.115Z,27.11
2023-07-22T14:59:27.606Z,26.86
2023-07-22T15:01:54.100Z,26.60
2023-07-22T15:04:20.532Z,26.38
2023-07-22T15:06:46.984Z,26.37
2023-07-22T15:09:13.574Z,26.77
2023-07-22T15:11:40.530Z,27.16
2023-07-22T15:14:07.177Z,27.02
2023-07-22T15:16:34.651Z,26.78
2023-07-22T15:19:01.658Z,26.77
2023-07-22T15:21:28.665Z,26.67
2023-07-22T15:23:55.796Z,26.53
2023-07-22T15:26:22.452Z,26.38
2023-07-22T15:28:49.481Z,26.32
2023-07-22T15:31:20.205Z,26.29
2023-07-22T15:33:46.885Z,26.26
2023-07-22T15:36:13.423Z,26.19
2023-07-22T15:38:39.891Z,26.17
2023-07-22T15:41:06.446Z,26.16
2023-07-22T15:43:33.058Z,26.16
2023-07-22T15:46:00.127Z,26.21
2023-07-22T15:48:26.796Z,26.22
2023-07-22T15:50:53.553Z,26.26
2023-07-22T15:53:20.456Z,26.39
2023-07-22T15:55:47.212Z,26.52
2023-07-22T15:58:13.739Z,26.57
2023-07-22T16:00:40.532Z,26.69
2023-07-22T16:03:07.838Z,26.86
2023-07-22T16:05:34.344Z,26.74
2023-07-22T16:08:01.489Z,26.55
2023-07-22T16:10:28.234Z,26.27
2023-07-22T16:12:54.781Z,26.10
2023-07-22T16:15:21.441Z,26.04
2023-07-22T16:17:48.070Z,26.01
2023-07-22T16:20:14.905Z,26.05
2023-07-22T16:22:41.507Z,26.12
2023-07-22T16:25:10.357Z,26.06
2023-07-22T16:27:36.859Z,25.86
2023-07-22T16:30:04.178Z,25.83
2023-07-22T16:32:30.725Z,25.99
2023-07-22T16:34:57.235Z,26.23
2023-07-22T16:37:23.757Z,26.31
2023-07-22T16:39:50.322Z,26.40
2023-07-22T16:42:16.808Z,26.41
2023-07-22T16:44:43.221Z,26.74
2023-07-22T16:47:09.621Z,27.75
2023-07-22T16:49:36.139Z,28.44
2023-07-22T16:52:02.623Z,29.14
2023-07-22T16:54:29.158Z,29.54
2023-07-22T16:56:55.557Z,29.51
2023-07-22T16:59:22.088Z,29.75
2023-07-22T17:01:48.616Z,30.23
2023-07-22T17:04:15.109Z,30.76
2023-07-22T17:06:41.560Z,30.92
2023-07-22T17:09:08.015Z,30.82
2023-07-22T17:11:34.551Z,30.86
2023-07-22T17:14:01.070Z,30.94
2023-07-22T17:16:27.750Z,30.99
2023-07-22T17:18:54.212Z,31.27
2023-07-22T17:21:20.668Z,31.59
2023-07-22T17:23:47.130Z,31.90
2023-07-22T17:26:13.634Z,32.14
2023-07-22T17:28:40.118Z,31.88
2023-07-22T17:31:06.680Z,31.67
2023-07-22T17:33:33.205Z,31.96
2023-07-22T17:35:59.817Z,32.06
2023-07-22T17:38:26.358Z,31.95
2023-07-22T17:40:53.092Z,32.04
2023-07-22T17:43:19.700Z,32.08
2023-07-22T17:45:46.410Z,31.57
2023-07-22T17:48:13.152Z,31.03
2023-07-22T17:50:39.634Z,31.02
2023-07-22T17:53:06.073Z,30.23
2023-07-22T17:55:32.563Z,28.78
2023-07-22T17:57:59.009Z,27.71
2023-07-22T18:00:25.521Z,26.94
2023-07-22T18:02:52.131Z,26.42
2023-07-22T18:05:18.720Z,26.07
2023-07-22T18:07:45.148Z,25.85
2023-07-22T18:10:11.598Z,25.74
2023-07-22T18:12:38.113Z,25.61
2023-07-22T18:15:04.911Z,25.53
2023-07-22T18:17:31.531Z,25.42
2023-07-22T18:19:58.027Z,25.35
2023-07-22T18:22:24.534Z,25.31
2023-07-22T18:24:51.054Z,25.23
2023-07-22T18:27:17.596Z,25.14
2023-07-22T18:29:44.060Z,25.09
2023-07-22T18:32:10.724Z,25.01
2023-07-22T18:34:37.263Z,24.95
2023-07-22T18:37:03.828Z,24.89
2023-07-22T18:39:30.370Z,24.83
2023-07-22T18:41:56.926Z,24.76
2023-07-22T18:44:23.427Z,24.70
2023-07-22T18:46:49.996Z,24.65
2023-07-22T18:49:16.518Z,24.58
2023-07-22T18:51:43.024Z,24.51
2023-07-22T18:54:09.681Z,24.41
2023-07-22T18:56:36.144Z,24.32
2023-07-22T18:59:02.707Z,24.22
2023-07-22T19:01:29.567Z,24.15
2023-07-22T19:03:56.340Z,24.09
2023-07-22T19:06:22.774Z,23.99
2023-07-22T19:08:49.265Z,23.87
2023-07-22T19:11:15.699Z,23.76
2023-07-22T19:13:42.242Z,23.66
2023-07-22T19:16:08.772Z,23.54
2023-07-22T19:18:35.285Z,23.43
2023-07-22T19:21:03.151Z,23.34
2023-07-22T19:23:30.249Z,23.27
2023-07-22T19:25:57.984Z,23.19
2023-07-22T19:28:24.607Z,23.08
2023-07-22T19:30:56.742Z,22.99
2023-07-22T19:33:24.569Z,22.89
2023-07-22T19:36:09.690Z,22.82
2023-07-22T19:38:37.105Z,22.78
2023-07-22T19:41:08.263Z,22.71
2023-07-22T19:43:36.401Z,22.60
2023-07-22T19:46:08.460Z,22.57
2023-07-22T19:48:35.971Z,22.51
2023-07-22T19:51:04.518Z,22.46
2023-07-22T19:53:31.374Z,22.39
2023-07-22T19:55:59.421Z,22.35
2023-07-22T19:58:26.007Z,22.33
2023-07-22T20:00:53.918Z,22.27
2023-07-22T20:03:21.465Z,22.21
2023-07-22T20:05:48.458Z,22.16
2023-07-22T20:08:15.196Z,22.11
2023-07-22T20:10:41.684Z,22.08
2023-07-22T20:13:08.214Z,22.07
2023-07-22T20:15:36.016Z,21.96
2023-07-22T20:18:03.677Z,21.89
2023-07-22T20:20:30.714Z,21.85
2023-07-22T20:22:57.248Z,21.83
2023-07-22T20:25:25.100Z,21.83
2023-07-22T20:27:56.482Z,21.88
2023-07-22T20:30:25.317Z,21.93
2023-07-22T20:32:51.784Z,21.94
2023-07-22T20:35:18.617Z,21.95
2023-07-22T20:37:45.492Z,21.96
2023-07-22T20:40:14.423Z,21.96
2023-07-22T20:42:42.633Z,21.95
2023-07-22T20:45:09.615Z,21.94
2023-07-22T20:47:36.370Z,21.89
2023-07-22T20:50:03.343Z,21.88
2023-07-22T20:52:30.082Z,21.84
2023-07-22T20:54:56.692Z,21.80
2023-07-22T20:57:23.161Z,21.75
2023-07-22T20:59:51.897Z,21.77
2023-07-22T21:02:18.377Z,21.77
2023-07-22T21:04:44.982Z,21.75
2023-07-22T21:07:11.683Z,21.64
2023-07-22T21:09:38.376Z,21.53
2023-07-22T21:12:05.187Z,21.43
2023-07-22T21:14:31.670Z,21.35
2023-07-22T21:16:58.115Z,21.33
2023-07-22T21:19:24.627Z,21.35
2023-07-22T21:21:51.152Z,21.34
2023-07-22T21:24:17.768Z,21.31
2023-07-22T21:26:44.274Z,21.23
2023-07-22T21:29:10.792Z,21.13
2023-07-22T21:31:37.254Z,21.11
2023-07-22T21:34:13.977Z,21.10
2023-07-22T21:36:41.648Z,21.12
2023-07-22T21:39:08.115Z,21.12
2023-07-22T21:41:34.557Z,21.10
2023-07-22T21:44:01.013Z,21.08
2023-07-22T21:46:27.522Z,21.05
2023-07-22T21:48:54.038Z,21.03
2023-07-22T21:51:20.453Z,20.98
2023-07-22T21:53:46.926Z,20.93
2023-07-22T21:56:13.398Z,20.90
2023-07-22T21:58:39.822Z,20.88
2023-07-22T22:01:06.311Z,20.89
2023-07-22T22:03:32.809Z,20.90
2023-07-22T22:05:59.957Z,20.88
2023-07-22T22:08:26.720Z,20.87
2023-07-22T22:10:53.304Z,20.92
2023-07-22T22:13:19.828Z,20.96
2023-07-22T22:15:46.408Z,20.98
2023-07-22T22:18:13.571Z,21.00
2023-07-22T22:20:40.113Z,21.05
2023-07-22T22:23:06.743Z,21.13
2023-07-22T22:25:33.298Z,21.18
2023-07-22T22:27:59.807Z,21.19
2023-07-22T22:30:26.351Z,21.22
2023-07-22T22:32:52.993Z,21.21
2023-07-22T22:35:19.530Z,21.24
2023-07-22T22:37:46.059Z,21.22
2023-07-22T22:40:12.631Z,21.21
2023-07-22T22:42:39.117Z,21.22
2023-07-22T22:45:06.162Z,21.23
2023-07-22T22:47:32.725Z,21.26
2023-07-22T22:49:59.358Z,21.28
2023-07-22T22:52:25.818Z,21.26
2023-07-22T22:54:52.471Z,21.29
2023-07-22T22:57:18.974Z,21.31
2023-07-22T22:59:45.488Z,21.30
2023-07-22T23:02:11.949Z,21.31
2023-07-22T23:04:38.380Z,21.29
2023-07-22T23:07:05.216Z,21.27
2023-07-22T23:09:31.701Z,21.30
2023-07-22T23:11:59.077Z,21.30
2023-07-22T23:14:25.788Z,21.31
2023-07-22T23:16:52.268Z,21.33
2023-07-22T23:19:19.448Z,21.32
2023-07-22T23:21:46.042Z,21.32
2023-07-22T23:24:12.536Z,21.31
2023-07-22T23:26:39.025Z,21.28
2023-07-22T23:29:05.551Z,21.27
2023-07-22T23:31:32.488Z,21.26
2023-07-22T23:33:58.979Z,21.26
2023-07-22T23:36:25.662Z,21.26
2023-07-22T23:38:52.221Z,21.24
2023-07-22T23:41:18.727Z,21.22
2023-07-22T23:43:45.167Z,21.15
2023-07-22T23:46:11.637Z,21.16
2023-07-22T23:48:38.103Z,21.11
2023-07-22T23:51:04.593Z,21.09
2023-07-22T23:53:31.095Z,21.09
2023-07-22T23:55:57.699Z,21.06
2023-07-22T23:58:24.127Z,21.07
